Wilsonia, California
Current Conditions -  °F | °C
As of 3:56 PM on Saturday 22 Nov 2014 (Local Time) from KBIH Reporting Station
Clear Clear  
Wind Chill: 66°   Ceiling: Unl
Heat Index: 66°   Visibility: 10mi
Dew Point: 25°   Wind: 7mph
Humidity: 21%   Direction: NA
Pressure: 29.91"   Gusts: NA
Location:  36.7872°N, 118.66°W
Report Text: KBIH 222356Z AUTO VRB06KT 10SM CLR 19/M04 A2991 RMK AO2 SLP107 T01891039 10194 20111 55001
Loading
Personal Weather Stations






























Interactive Weather Map New forecast layout! Learn more

10-Day Weather Forecast

Advertisements
Track Severe Weather on mobile